sensor_id;sensor_type;location;lat;lon;timestamp;P1;durP1;ratioP1;P2;durP2;ratioP2
16979;SDS011;42288;52.182;21.156;2023-01-05T00:01:53;9.60;;;5.97;;
16979;SDS011;42288;52.182;21.156;2023-01-05T00:04:19;14.73;;;6.10;;
16979;SDS011;42288;52.182;21.156;2023-01-05T00:06:45;17.37;;;10.03;;
16979;SDS011;42288;52.182;21.156;2023-01-05T00:09:11;10.70;;;6.70;;
16979;SDS011;42288;52.182;21.156;2023-01-05T00:11:38;9.33;;;6.83;;
16979;SDS011;42288;52.182;21.156;2023-01-05T00:14:25;11.17;;;6.97;;
16979;SDS011;42288;52.182;21.156;2023-01-05T00:17:12;12.83;;;8.10;;
16979;SDS011;42288;52.182;21.156;2023-01-05T00:19:59;8.80;;;6.23;;
16979;SDS011;42288;52.182;21.156;2023-01-05T00:22:45;9.60;;;6.17;;
16979;SDS011;42288;52.182;21.156;2023-01-05T00:25:16;11.30;;;6.00;;
16979;SDS011;42288;52.182;21.156;2023-01-05T00:27:45;9.00;;;5.70;;
16979;SDS011;42288;52.182;21.156;2023-01-05T00:30:13;9.57;;;6.73;;
16979;SDS011;42288;52.182;21.156;2023-01-05T00:32:40;8.70;;;5.73;;
16979;SDS011;42288;52.182;21.156;2023-01-05T00:35:07;10.23;;;6.10;;
16979;SDS011;42288;52.182;21.156;2023-01-05T00:37:34;9.20;;;5.73;;
16979;SDS011;42288;52.182;21.156;2023-01-05T00:40:02;10.97;;;6.67;;
16979;SDS011;42288;52.182;21.156;2023-01-05T00:42:30;8.27;;;5.93;;
16979;SDS011;42288;52.182;21.156;2023-01-05T00:44:55;8.73;;;6.17;;
16979;SDS011;42288;52.182;21.156;2023-01-05T00:47:21;8.83;;;6.23;;
16979;SDS011;42288;52.182;21.156;2023-01-05T00:49:46;8.73;;;5.23;;
16979;SDS011;42288;52.182;21.156;2023-01-05T00:52:12;8.27;;;5.20;;
16979;SDS011;42288;52.182;21.156;2023-01-05T00:54:38;6.93;;;4.67;;
16979;SDS011;42288;52.182;21.156;2023-01-05T00:57:03;9.43;;;5.73;;
16979;SDS011;42288;52.182;21.156;2023-01-05T00:59:31;7.63;;;5.07;;
16979;SDS011;42288;52.182;21.156;2023-01-05T01:01:56;7.57;;;4.70;;
16979;SDS011;42288;52.182;21.156;2023-01-05T01:04:22;8.30;;;5.27;;
16979;SDS011;42288;52.182;21.156;2023-01-05T01:06:48;8.50;;;5.40;;
16979;SDS011;42288;52.182;21.156;2023-01-05T01:09:13;8.47;;;5.50;;
16979;SDS011;42288;52.182;21.156;2023-01-05T01:11:39;8.20;;;5.50;;
16979;SDS011;42288;52.182;21.156;2023-01-05T01:14:05;6.93;;;5.27;;
16979;SDS011;42288;52.182;21.156;2023-01-05T01:16:32;7.90;;;5.53;;
16979;SDS011;42288;52.182;21.156;2023-01-05T01:18:58;12.07;;;5.50;;
16979;SDS011;42288;52.182;21.156;2023-01-05T01:21:24;11.07;;;6.20;;
16979;SDS011;42288;52.182;21.156;2023-01-05T01:23:49;11.80;;;6.77;;
16979;SDS011;42288;52.182;21.156;2023-01-05T01:26:15;11.67;;;6.57;;
16979;SDS011;42288;52.182;21.156;2023-01-05T01:28:41;10.73;;;6.10;;
16979;SDS011;42288;52.182;21.156;2023-01-05T01:31:06;12.33;;;7.60;;
16979;SDS011;42288;52.182;21.156;2023-01-05T01:33:37;10.23;;;7.07;;
16979;SDS011;42288;52.182;21.156;2023-01-05T01:36:03;14.43;;;7.83;;
16979;SDS011;42288;52.182;21.156;2023-01-05T01:38:29;10.97;;;6.87;;
16979;SDS011;42288;52.182;21.156;2023-01-05T01:40:56;11.90;;;6.80;;
16979;SDS011;42288;52.182;21.156;2023-01-05T01:46:12;11.70;;;6.87;;
16979;SDS011;42288;52.182;21.156;2023-01-05T01:48:40;10.93;;;6.47;;
16979;SDS011;42288;52.182;21.156;2023-01-05T01:51:14;12.77;;;7.60;;
16979;SDS011;42288;52.182;21.156;2023-01-05T01:54:04;12.13;;;8.07;;
16979;SDS011;42288;52.182;21.156;2023-01-05T01:56:36;22.47;;;7.87;;
16979;SDS011;42288;52.182;21.156;2023-01-05T01:59:06;18.93;;;8.73;;
16979;SDS011;42288;52.182;21.156;2023-01-05T02:01:32;9.17;;;6.17;;
16979;SDS011;42288;52.182;21.156;2023-01-05T02:03:58;21.93;;;9.23;;
16979;SDS011;42288;52.182;21.156;2023-01-05T02:06:25;12.43;;;7.10;;
16979;SDS011;42288;52.182;21.156;2023-01-05T02:08:50;11.50;;;7.27;;
16979;SDS011;42288;52.182;21.156;2023-01-05T02:14:07;13.03;;;8.00;;
16979;SDS011;42288;52.182;21.156;2023-01-05T02:22:57;7.33;;;4.27;;
16979;SDS011;42288;52.182;21.156;2023-01-05T02:25:49;9.67;;;4.73;;
16979;SDS011;42288;52.182;21.156;2023-01-05T02:34:14;5.67;;;4.10;;
16979;SDS011;42288;52.182;21.156;2023-01-05T02:36:55;4.90;;;3.70;;
16979;SDS011;42288;52.182;21.156;2023-01-05T02:42:45;7.40;;;4.93;;
16979;SDS011;42288;52.182;21.156;2023-01-05T02:45:14;8.73;;;4.97;;
16979;SDS011;42288;52.182;21.156;2023-01-05T02:47:41;5.77;;;4.13;;
16979;SDS011;42288;52.182;21.156;2023-01-05T02:50:13;8.57;;;4.10;;
16979;SDS011;42288;52.182;21.156;2023-01-05T02:52:51;5.50;;;3.70;;
16979;SDS011;42288;52.182;21.156;2023-01-05T02:55:34;6.67;;;4.10;;
16979;SDS011;42288;52.182;21.156;2023-01-05T02:58:14;8.57;;;4.23;;
16979;SDS011;42288;52.182;21.156;2023-01-05T03:00:42;7.57;;;4.20;;
16979;SDS011;42288;52.182;21.156;2023-01-05T03:03:15;6.47;;;3.83;;
16979;SDS011;42288;52.182;21.156;2023-01-05T03:08:55;5.27;;;3.67;;
16979;SDS011;42288;52.182;21.156;2023-01-05T03:11:30;6.00;;;3.70;;
16979;SDS011;42288;52.182;21.156;2023-01-05T03:14:32;8.23;;;4.70;;
16979;SDS011;42288;52.182;21.156;2023-01-05T03:17:21;9.63;;;4.23;;
16979;SDS011;42288;52.182;21.156;2023-01-05T03:19:53;5.00;;;3.53;;
16979;SDS011;42288;52.182;21.156;2023-01-05T03:22:25;7.80;;;4.13;;
16979;SDS011;42288;52.182;21.156;2023-01-05T03:25:12;6.87;;;4.30;;
16979;SDS011;42288;52.182;21.156;2023-01-05T03:28:01;7.17;;;4.10;;
16979;SDS011;42288;52.182;21.156;2023-01-05T03:30:51;7.10;;;4.37;;
16979;SDS011;42288;52.182;21.156;2023-01-05T03:33:44;6.03;;;3.33;;
16979;SDS011;42288;52.182;21.156;2023-01-05T03:36:33;6.60;;;3.50;;
16979;SDS011;42288;52.182;21.156;2023-01-05T03:39:05;4.73;;;3.23;;
16979;SDS011;42288;52.182;21.156;2023-01-05T03:41:32;8.83;;;3.60;;
16979;SDS011;42288;52.182;21.156;2023-01-05T03:43:59;10.93;;;5.30;;
16979;SDS011;42288;52.182;21.156;2023-01-05T03:46:25;8.17;;;4.13;;
16979;SDS011;42288;52.182;21.156;2023-01-05T03:48:52;6.10;;;3.77;;
16979;SDS011;42288;52.182;21.156;2023-01-05T03:51:17;26.93;;;5.53;;
16979;SDS011;42288;52.182;21.156;2023-01-05T03:53:43;6.13;;;4.57;;
16979;SDS011;42288;52.182;21.156;2023-01-05T03:56:09;8.97;;;4.67;;
16979;SDS011;42288;52.182;21.156;2023-01-05T03:58:34;8.80;;;5.57;;
16979;SDS011;42288;52.182;21.156;2023-01-05T04:01:00;6.93;;;3.93;;
16979;SDS011;42288;52.182;21.156;2023-01-05T04:03:25;11.53;;;6.13;;
16979;SDS011;42288;52.182;21.156;2023-01-05T04:05:51;14.17;;;6.43;;
16979;SDS011;42288;52.182;21.156;2023-01-05T04:08:16;12.77;;;6.27;;
16979;SDS011;42288;52.182;21.156;2023-01-05T04:10:42;14.57;;;6.60;;
16979;SDS011;42288;52.182;21.156;2023-01-05T04:13:08;15.30;;;7.30;;
16979;SDS011;42288;52.182;21.156;2023-01-05T04:15:33;11.00;;;5.27;;
16979;SDS011;42288;52.182;21.156;2023-01-05T04:17:59;10.40;;;4.20;;
16979;SDS011;42288;52.182;21.156;2023-01-05T04:20:24;4.67;;;3.30;;
16979;SDS011;42288;52.182;21.156;2023-01-05T04:22:50;8.57;;;4.57;;
16979;SDS011;42288;52.182;21.156;2023-01-05T04:25:15;5.77;;;2.97;;
16979;SDS011;42288;52.182;21.156;2023-01-05T04:27:41;7.37;;;4.07;;
16979;SDS011;42288;52.182;21.156;2023-01-05T04:30:07;5.07;;;2.80;;
16979;SDS011;42288;52.182;21.156;2023-01-05T04:32:33;5.00;;;2.80;;
16979;SDS011;42288;52.182;21.156;2023-01-05T04:34:58;7.90;;;4.10;;
16979;SDS011;42288;52.182;21.156;2023-01-05T04:37:24;6.17;;;3.67;;
16979;SDS011;42288;52.182;21.156;2023-01-05T04:39:50;10.90;;;5.00;;
16979;SDS011;42288;52.182;21.156;2023-01-05T04:42:15;4.67;;;2.80;;
16979;SDS011;42288;52.182;21.156;2023-01-05T04:44:41;6.90;;;3.13;;
16979;SDS011;42288;52.182;21.156;2023-01-05T04:47:06;4.57;;;2.57;;
16979;SDS011;42288;52.182;21.156;2023-01-05T04:49:32;6.53;;;2.53;;
16979;SDS011;42288;52.182;21.156;2023-01-05T04:51:57;20.03;;;3.00;;
16979;SDS011;42288;52.182;21.156;2023-01-05T04:54:23;4.60;;;2.30;;
16979;SDS011;42288;52.182;21.156;2023-01-05T04:56:49;4.03;;;2.30;;
16979;SDS011;42288;52.182;21.156;2023-01-05T04:59:14;4.63;;;2.40;;
16979;SDS011;42288;52.182;21.156;2023-01-05T05:01:40;5.80;;;1.90;;
16979;SDS011;42288;52.182;21.156;2023-01-05T05:04:06;3.37;;;1.97;;
16979;SDS011;42288;52.182;21.156;2023-01-05T05:06:31;4.57;;;2.33;;
16979;SDS011;42288;52.182;21.156;2023-01-05T05:08:57;3.43;;;2.43;;
16979;SDS011;42288;52.182;21.156;2023-01-05T05:11:22;3.93;;;2.60;;
16979;SDS011;42288;52.182;21.156;2023-01-05T05:13:48;6.67;;;4.30;;
16979;SDS011;42288;52.182;21.156;2023-01-05T05:16:13;8.77;;;5.07;;
16979;SDS011;42288;52.182;21.156;2023-01-05T05:18:39;5.87;;;3.77;;
16979;SDS011;42288;52.182;21.156;2023-01-05T05:21:05;7.03;;;4.50;;
16979;SDS011;42288;52.182;21.156;2023-01-05T05:23:30;6.30;;;3.83;;
16979;SDS011;42288;52.182;21.156;2023-01-05T05:25:56;5.90;;;3.17;;
16979;SDS011;42288;52.182;21.156;2023-01-05T05:28:21;6.93;;;4.10;;
16979;SDS011;42288;52.182;21.156;2023-01-05T05:30:51;4.20;;;3.40;;
16979;SDS011;42288;52.182;21.156;2023-01-05T05:33:18;7.07;;;3.70;;
16979;SDS011;42288;52.182;21.156;2023-01-05T05:35:44;7.33;;;4.27;;
16979;SDS011;42288;52.182;21.156;2023-01-05T05:38:10;7.87;;;4.93;;
16979;SDS011;42288;52.182;21.156;2023-01-05T05:40:35;9.90;;;5.60;;
16979;SDS011;42288;52.182;21.156;2023-01-05T05:43:01;8.73;;;3.77;;
16979;SDS011;42288;52.182;21.156;2023-01-05T05:45:26;8.57;;;4.17;;
16979;SDS011;42288;52.182;21.156;2023-01-05T05:47:52;6.90;;;4.17;;
16979;SDS011;42288;52.182;21.156;2023-01-05T05:50:17;12.23;;;4.40;;
16979;SDS011;42288;52.182;21.156;2023-01-05T05:52:43;6.67;;;3.93;;
16979;SDS011;42288;52.182;21.156;2023-01-05T05:55:09;6.70;;;3.70;;
16979;SDS011;42288;52.182;21.156;2023-01-05T05:57:34;6.93;;;3.57;;
16979;SDS011;42288;52.182;21.156;2023-01-05T06:00:00;7.70;;;4.03;;
16979;SDS011;42288;52.182;21.156;2023-01-05T06:02:25;7.67;;;3.30;;
16979;SDS011;42288;52.182;21.156;2023-01-05T06:04:51;4.30;;;2.80;;
16979;SDS011;42288;52.182;21.156;2023-01-05T06:07:16;7.80;;;2.70;;
16979;SDS011;42288;52.182;21.156;2023-01-05T06:09:42;6.33;;;3.10;;
16979;SDS011;42288;52.182;21.156;2023-01-05T06:12:08;4.13;;;2.37;;
16979;SDS011;42288;52.182;21.156;2023-01-05T06:14:33;5.17;;;2.30;;
16979;SDS011;42288;52.182;21.156;2023-01-05T06:16:59;6.20;;;2.50;;
16979;SDS011;42288;52.182;21.156;2023-01-05T06:19:24;3.80;;;2.07;;
16979;SDS011;42288;52.182;21.156;2023-01-05T06:21:50;3.87;;;2.00;;
16979;SDS011;42288;52.182;21.156;2023-01-05T06:24:16;5.47;;;2.27;;
16979;SDS011;42288;52.182;21.156;2023-01-05T06:26:41;2.87;;;1.80;;
16979;SDS011;42288;52.182;21.156;2023-01-05T06:29:07;3.80;;;2.10;;
16979;SDS011;42288;52.182;21.156;2023-01-05T06:31:32;5.07;;;2.60;;
16979;SDS011;42288;52.182;21.156;2023-01-05T06:33:58;3.03;;;2.10;;
16979;SDS011;42288;52.182;21.156;2023-01-05T06:36:23;3.93;;;2.40;;
16979;SDS011;42288;52.182;21.156;2023-01-05T06:38:49;5.43;;;2.27;;
16979;SDS011;42288;52.182;21.156;2023-01-05T06:41:14;4.80;;;2.30;;
16979;SDS011;42288;52.182;21.156;2023-01-05T06:43:40;8.57;;;2.90;;
16979;SDS011;42288;52.182;21.156;2023-01-05T06:46:05;7.77;;;3.07;;
16979;SDS011;42288;52.182;21.156;2023-01-05T06:48:31;7.90;;;2.70;;
16979;SDS011;42288;52.182;21.156;2023-01-05T06:50:57;7.87;;;2.60;;
16979;SDS011;42288;52.182;21.156;2023-01-05T06:53:22;6.20;;;2.80;;
16979;SDS011;42288;52.182;21.156;2023-01-05T06:55:48;4.43;;;2.90;;
16979;SDS011;42288;52.182;21.156;2023-01-05T06:58:13;7.10;;;2.80;;
16979;SDS011;42288;52.182;21.156;2023-01-05T07:00:39;5.87;;;3.07;;
16979;SDS011;42288;52.182;21.156;2023-01-05T07:03:05;8.83;;;3.30;;
16979;SDS011;42288;52.182;21.156;2023-01-05T07:05:31;7.53;;;2.83;;
16979;SDS011;42288;52.182;21.156;2023-01-05T07:07:57;7.30;;;2.80;;
16979;SDS011;42288;52.182;21.156;2023-01-05T07:10:22;10.03;;;3.50;;
16979;SDS011;42288;52.182;21.156;2023-01-05T07:12:48;10.27;;;3.33;;
16979;SDS011;42288;52.182;21.156;2023-01-05T07:15:13;8.33;;;3.10;;
16979;SDS011;42288;52.182;21.156;2023-01-05T07:17:39;8.13;;;3.60;;
16979;SDS011;42288;52.182;21.156;2023-01-05T07:20:05;6.00;;;3.90;;
16979;SDS011;42288;52.182;21.156;2023-01-05T07:22:32;9.63;;;3.90;;
16979;SDS011;42288;52.182;21.156;2023-01-05T07:24:57;8.43;;;4.00;;
16979;SDS011;42288;52.182;21.156;2023-01-05T07:27:23;9.73;;;4.17;;
16979;SDS011;42288;52.182;21.156;2023-01-05T07:29:49;10.83;;;5.33;;
16979;SDS011;42288;52.182;21.156;2023-01-05T07:32:15;9.00;;;4.67;;
16979;SDS011;42288;52.182;21.156;2023-01-05T07:34:40;11.23;;;5.17;;
16979;SDS011;42288;52.182;21.156;2023-01-05T07:37:06;8.27;;;4.80;;
16979;SDS011;42288;52.182;21.156;2023-01-05T07:39:31;12.40;;;4.73;;
16979;SDS011;42288;52.182;21.156;2023-01-05T07:41:57;11.33;;;4.60;;
16979;SDS011;42288;52.182;21.156;2023-01-05T07:44:23;12.53;;;6.07;;
16979;SDS011;42288;52.182;21.156;2023-01-05T07:46:48;11.43;;;5.50;;
16979;SDS011;42288;52.182;21.156;2023-01-05T07:49:14;11.20;;;5.70;;
16979;SDS011;42288;52.182;21.156;2023-01-05T07:51:40;10.53;;;5.07;;
16979;SDS011;42288;52.182;21.156;2023-01-05T07:54:05;11.67;;;5.73;;
16979;SDS011;42288;52.182;21.156;2023-01-05T07:56:31;7.10;;;4.03;;
16979;SDS011;42288;52.182;21.156;2023-01-05T07:58:57;6.73;;;4.03;;
16979;SDS011;42288;52.182;21.156;2023-01-05T08:01:23;9.33;;;5.00;;
16979;SDS011;42288;52.182;21.156;2023-01-05T08:03:49;9.20;;;4.60;;
16979;SDS011;42288;52.182;21.156;2023-01-05T08:06:16;9.30;;;4.53;;
16979;SDS011;42288;52.182;21.156;2023-01-05T08:08:43;10.07;;;4.27;;
16979;SDS011;42288;52.182;21.156;2023-01-05T08:11:09;12.00;;;4.60;;
16979;SDS011;42288;52.182;21.156;2023-01-05T08:13:39;12.03;;;5.93;;
16979;SDS011;42288;52.182;21.156;2023-01-05T08:16:23;10.23;;;4.80;;
16979;SDS011;42288;52.182;21.156;2023-01-05T08:18:49;9.70;;;4.27;;
16979;SDS011;42288;52.182;21.156;2023-01-05T08:21:15;8.90;;;4.13;;
16979;SDS011;42288;52.182;21.156;2023-01-05T08:23:41;8.77;;;4.53;;
16979;SDS011;42288;52.182;21.156;2023-01-05T08:26:07;7.57;;;3.63;;
16979;SDS011;42288;52.182;21.156;2023-01-05T08:28:36;7.90;;;3.93;;
16979;SDS011;42288;52.182;21.156;2023-01-05T08:31:07;7.33;;;4.33;;
16979;SDS011;42288;52.182;21.156;2023-01-05T08:33:35;8.27;;;3.80;;
16979;SDS011;42288;52.182;21.156;2023-01-05T08:36:00;9.37;;;3.87;;
16979;SDS011;42288;52.182;21.156;2023-01-05T08:38:30;7.83;;;3.80;;
16979;SDS011;42288;52.182;21.156;2023-01-05T08:40:56;8.37;;;3.77;;
16979;SDS011;42288;52.182;21.156;2023-01-05T08:43:25;10.80;;;4.07;;
16979;SDS011;42288;52.182;21.156;2023-01-05T08:45:51;9.17;;;3.60;;
16979;SDS011;42288;52.182;21.156;2023-01-05T08:48:17;9.80;;;3.70;;
16979;SDS011;42288;52.182;21.156;2023-01-05T08:50:42;7.77;;;3.53;;
16979;SDS011;42288;52.182;21.156;2023-01-05T08:53:08;10.00;;;3.50;;
16979;SDS011;42288;52.182;21.156;2023-01-05T08:55:34;10.60;;;4.03;;
16979;SDS011;42288;52.182;21.156;2023-01-05T08:57:59;8.80;;;4.20;;
16979;SDS011;42288;52.182;21.156;2023-01-05T09:00:25;10.53;;;4.67;;
16979;SDS011;42288;52.182;21.156;2023-01-05T09:02:50;9.53;;;4.47;;
16979;SDS011;42288;52.182;21.156;2023-01-05T09:05:16;7.23;;;3.63;;
16979;SDS011;42288;52.182;21.156;2023-01-05T09:07:41;14.40;;;4.20;;
16979;SDS011;42288;52.182;21.156;2023-01-05T09:10:08;10.20;;;4.40;;
16979;SDS011;42288;52.182;21.156;2023-01-05T09:12:34;10.87;;;4.63;;
16979;SDS011;42288;52.182;21.156;2023-01-05T09:15:01;17.77;;;5.37;;
16979;SDS011;42288;52.182;21.156;2023-01-05T09:17:27;16.30;;;5.80;;
16979;SDS011;42288;52.182;21.156;2023-01-05T09:19:53;13.03;;;5.50;;
16979;SDS011;42288;52.182;21.156;2023-01-05T09:22:19;5.00;;;3.00;;
16979;SDS011;42288;52.182;21.156;2023-01-05T09:24:45;16.17;;;4.97;;
16979;SDS011;42288;52.182;21.156;2023-01-05T09:27:11;11.50;;;5.37;;
16979;SDS011;42288;52.182;21.156;2023-01-05T09:29:36;11.60;;;4.50;;
16979;SDS011;42288;52.182;21.156;2023-01-05T09:32:02;11.87;;;3.10;;
16979;SDS011;42288;52.182;21.156;2023-01-05T09:34:29;7.13;;;2.20;;
16979;SDS011;42288;52.182;21.156;2023-01-05T09:36:54;7.67;;;2.63;;
16979;SDS011;42288;52.182;21.156;2023-01-05T09:39:20;5.93;;;2.30;;
16979;SDS011;42288;52.182;21.156;2023-01-05T09:41:55;7.93;;;2.33;;
16979;SDS011;42288;52.182;21.156;2023-01-05T09:47:09;6.43;;;2.60;;
16979;SDS011;42288;52.182;21.156;2023-01-05T09:49:42;6.23;;;2.33;;
16979;SDS011;42288;52.182;21.156;2023-01-05T09:52:09;9.83;;;3.40;;
16979;SDS011;42288;52.182;21.156;2023-01-05T09:54:37;7.60;;;2.57;;
16979;SDS011;42288;52.182;21.156;2023-01-05T09:57:04;5.80;;;2.37;;
16979;SDS011;42288;52.182;21.156;2023-01-05T09:59:36;5.20;;;2.20;;
16979;SDS011;42288;52.182;21.156;2023-01-05T10:02:17;4.77;;;2.67;;
16979;SDS011;42288;52.182;21.156;2023-01-05T10:04:47;6.17;;;2.40;;
16979;SDS011;42288;52.182;21.156;2023-01-05T10:10:02;4.73;;;2.00;;
16979;SDS011;42288;52.182;21.156;2023-01-05T10:12:42;4.87;;;1.77;;
16979;SDS011;42288;52.182;21.156;2023-01-05T10:15:27;7.97;;;2.50;;
16979;SDS011;42288;52.182;21.156;2023-01-05T10:18:22;6.57;;;2.60;;
16979;SDS011;42288;52.182;21.156;2023-01-05T10:29:19;10.07;;;5.67;;
16979;SDS011;42288;52.182;21.156;2023-01-05T10:31:58;12.73;;;5.20;;
16979;SDS011;42288;52.182;21.156;2023-01-05T10:34:52;10.00;;;4.27;;
16979;SDS011;42288;52.182;21.156;2023-01-05T10:37:44;13.30;;;6.63;;
16979;SDS011;42288;52.182;21.156;2023-01-05T10:40:19;8.43;;;3.30;;
16979;SDS011;42288;52.182;21.156;2023-01-05T10:45:28;7.03;;;3.20;;
16979;SDS011;42288;52.182;21.156;2023-01-05T10:47:55;5.67;;;3.23;;
16979;SDS011;42288;52.182;21.156;2023-01-05T10:53:08;12.73;;;4.23;;
16979;SDS011;42288;52.182;21.156;2023-01-05T10:56:23;7.90;;;3.50;;
16979;SDS011;42288;52.182;21.156;2023-01-05T10:58:35;9.03;;;3.50;;
16979;SDS011;42288;52.182;21.156;2023-01-05T11:01:04;11.03;;;3.80;;
16979;SDS011;42288;52.182;21.156;2023-01-05T11:03:47;13.30;;;5.23;;
16979;SDS011;42288;52.182;21.156;2023-01-05T11:06:18;9.93;;;4.37;;
16979;SDS011;42288;52.182;21.156;2023-01-05T11:08:46;10.10;;;3.90;;
16979;SDS011;42288;52.182;21.156;2023-01-05T11:11:18;7.97;;;4.00;;
16979;SDS011;42288;52.182;21.156;2023-01-05T11:13:46;7.80;;;3.50;;
16979;SDS011;42288;52.182;21.156;2023-01-05T11:16:14;8.77;;;3.90;;
16979;SDS011;42288;52.182;21.156;2023-01-05T11:21:14;11.23;;;3.93;;
16979;SDS011;42288;52.182;21.156;2023-01-05T11:23:44;10.47;;;3.23;;
16979;SDS011;42288;52.182;21.156;2023-01-05T11:31:22;8.83;;;3.33;;
16979;SDS011;42288;52.182;21.156;2023-01-05T11:33:54;10.77;;;3.37;;
16979;SDS011;42288;52.182;21.156;2023-01-05T11:36:22;6.57;;;3.10;;
16979;SDS011;42288;52.182;21.156;2023-01-05T11:38:54;8.77;;;3.50;;
16979;SDS011;42288;52.182;21.156;2023-01-05T11:41:22;10.53;;;3.40;;
16979;SDS011;42288;52.182;21.156;2023-01-05T11:43:48;12.63;;;4.00;;
16979;SDS011;42288;52.182;21.156;2023-01-05T11:46:16;13.37;;;4.10;;
16979;SDS011;42288;52.182;21.156;2023-01-05T11:48:52;15.23;;;4.23;;
16979;SDS011;42288;52.182;21.156;2023-01-05T11:51:32;16.93;;;4.90;;
16979;SDS011;42288;52.182;21.156;2023-01-05T11:54:04;15.47;;;5.03;;
16979;SDS011;42288;52.182;21.156;2023-01-05T11:56:50;14.63;;;4.77;;
16979;SDS011;42288;52.182;21.156;2023-01-05T11:59:30;26.40;;;8.00;;
16979;SDS011;42288;52.182;21.156;2023-01-05T12:02:12;23.57;;;8.23;;
16979;SDS011;42288;52.182;21.156;2023-01-05T12:05:21;12.30;;;5.27;;
16979;SDS011;42288;52.182;21.156;2023-01-05T12:08:09;22.07;;;6.37;;
16979;SDS011;42288;52.182;21.156;2023-01-05T12:30:13;32.33;;;9.90;;
16979;SDS011;42288;52.182;21.156;2023-01-05T12:33:01;12.63;;;3.37;;
16979;SDS011;42288;52.182;21.156;2023-01-05T12:35:53;24.93;;;7.90;;
16979;SDS011;42288;52.182;21.156;2023-01-05T12:49:26;11.80;;;3.77;;
16979;SDS011;42288;52.182;21.156;2023-01-05T12:52:07;11.47;;;2.47;;
16979;SDS011;42288;52.182;21.156;2023-01-05T12:54:39;15.53;;;4.37;;
16979;SDS011;42288;52.182;21.156;2023-01-05T12:57:13;11.93;;;3.50;;
16979;SDS011;42288;52.182;21.156;2023-01-05T13:02:25;10.07;;;3.00;;
16979;SDS011;42288;52.182;21.156;2023-01-05T13:05:05;12.80;;;2.67;;
16979;SDS011;42288;52.182;21.156;2023-01-05T13:07:34;14.63;;;2.80;;
16979;SDS011;42288;52.182;21.156;2023-01-05T13:10:03;12.93;;;2.90;;
16979;SDS011;42288;52.182;21.156;2023-01-05T13:12:32;9.30;;;2.23;;
16979;SDS011;42288;52.182;21.156;2023-01-05T13:15:12;11.17;;;2.37;;
16979;SDS011;42288;52.182;21.156;2023-01-05T13:17:47;8.17;;;2.13;;
16979;SDS011;42288;52.182;21.156;2023-01-05T13:22:46;10.20;;;2.33;;
16979;SDS011;42288;52.182;21.156;2023-01-05T13:25:16;12.87;;;2.47;;
16979;SDS011;42288;52.182;21.156;2023-01-05T13:27:44;13.50;;;2.83;;
16979;SDS011;42288;52.182;21.156;2023-01-05T13:30:27;5.83;;;2.07;;
16979;SDS011;42288;52.182;21.156;2023-01-05T13:33:07;9.70;;;2.10;;
16979;SDS011;42288;52.182;21.156;2023-01-05T13:44:25;6.13;;;1.87;;
16979;SDS011;42288;52.182;21.156;2023-01-05T13:47:26;9.23;;;1.70;;
16979;SDS011;42288;52.182;21.156;2023-01-05T13:50:16;13.17;;;2.00;;
16979;SDS011;42288;52.182;21.156;2023-01-05T13:55:15;5.80;;;1.80;;
16979;SDS011;42288;52.182;21.156;2023-01-05T13:57:45;9.07;;;1.73;;
16979;SDS011;42288;52.182;21.156;2023-01-05T14:03:00;6.90;;;2.00;;
16979;SDS011;42288;52.182;21.156;2023-01-05T14:05:38;6.57;;;2.03;;
16979;SDS011;42288;52.182;21.156;2023-01-05T14:08:45;8.30;;;2.23;;
16979;SDS011;42288;52.182;21.156;2023-01-05T14:11:14;5.20;;;1.87;;
16979;SDS011;42288;52.182;21.156;2023-01-05T14:13:48;10.27;;;2.27;;
16979;SDS011;42288;52.182;21.156;2023-01-05T14:29:46;8.10;;;2.03;;
16979;SDS011;42288;52.182;21.156;2023-01-05T14:40:50;7.10;;;2.90;;
16979;SDS011;42288;52.182;21.156;2023-01-05T14:43:32;8.33;;;1.80;;
16979;SDS011;42288;52.182;21.156;2023-01-05T14:46:05;3.63;;;1.73;;
16979;SDS011;42288;52.182;21.156;2023-01-05T14:48:34;5.40;;;1.90;;
16979;SDS011;42288;52.182;21.156;2023-01-05T14:51:06;5.40;;;1.97;;
16979;SDS011;42288;52.182;21.156;2023-01-05T14:53:45;10.17;;;2.33;;
16979;SDS011;42288;52.182;21.156;2023-01-05T14:56:14;5.17;;;2.10;;
16979;SDS011;42288;52.182;21.156;2023-01-05T15:06:45;8.43;;;2.17;;
16979;SDS011;42288;52.182;21.156;2023-01-05T15:09:35;12.93;;;2.60;;
16979;SDS011;42288;52.182;21.156;2023-01-05T15:18:35;7.17;;;2.50;;
16979;SDS011;42288;52.182;21.156;2023-01-05T15:21:44;6.33;;;2.60;;
16979;SDS011;42288;52.182;21.156;2023-01-05T15:24:13;11.37;;;2.80;;
16979;SDS011;42288;52.182;21.156;2023-01-05T15:30:27;7.73;;;2.60;;
16979;SDS011;42288;52.182;21.156;2023-01-05T15:33:19;10.97;;;3.53;;
16979;SDS011;42288;52.182;21.156;2023-01-05T15:35:56;10.23;;;2.90;;
16979;SDS011;42288;52.182;21.156;2023-01-05T15:38:26;7.23;;;2.63;;
16979;SDS011;42288;52.182;21.156;2023-01-05T15:41:00;6.03;;;2.90;;
16979;SDS011;42288;52.182;21.156;2023-01-05T15:43:29;7.50;;;2.50;;
16979;SDS011;42288;52.182;21.156;2023-01-05T15:45:56;8.70;;;2.70;;
16979;SDS011;42288;52.182;21.156;2023-01-05T15:48:36;8.37;;;2.50;;
16979;SDS011;42288;52.182;21.156;2023-01-05T15:51:06;8.93;;;2.67;;
16979;SDS011;42288;52.182;21.156;2023-01-05T15:53:35;6.07;;;2.97;;
16979;SDS011;42288;52.182;21.156;2023-01-05T15:56:05;6.03;;;2.30;;
16979;SDS011;42288;52.182;21.156;2023-01-05T15:58:46;5.90;;;2.67;;
16979;SDS011;42288;52.182;21.156;2023-01-05T16:01:13;10.23;;;2.90;;
16979;SDS011;42288;52.182;21.156;2023-01-05T16:03:40;7.00;;;3.00;;
16979;SDS011;42288;52.182;21.156;2023-01-05T16:06:18;10.87;;;3.20;;
16979;SDS011;42288;52.182;21.156;2023-01-05T16:08:52;7.37;;;2.90;;
16979;SDS011;42288;52.182;21.156;2023-01-05T16:11:22;10.53;;;3.97;;
16979;SDS011;42288;52.182;21.156;2023-01-05T16:14:12;8.50;;;4.03;;
16979;SDS011;42288;52.182;21.156;2023-01-05T16:16:43;11.23;;;3.97;;
16979;SDS011;42288;52.182;21.156;2023-01-05T16:19:16;13.73;;;4.30;;
16979;SDS011;42288;52.182;21.156;2023-01-05T16:21:54;8.77;;;3.80;;
16979;SDS011;42288;52.182;21.156;2023-01-05T16:24:29;6.30;;;3.13;;
16979;SDS011;42288;52.182;21.156;2023-01-05T16:27:15;7.50;;;2.60;;
16979;SDS011;42288;52.182;21.156;2023-01-05T16:29:42;4.83;;;2.60;;
16979;SDS011;42288;52.182;21.156;2023-01-05T16:40:28;3.27;;;1.83;;
16979;SDS011;42288;52.182;21.156;2023-01-05T16:42:54;3.63;;;2.03;;
16979;SDS011;42288;52.182;21.156;2023-01-05T16:45:23;3.43;;;2.20;;
16979;SDS011;42288;52.182;21.156;2023-01-05T16:47:51;4.60;;;2.27;;
16979;SDS011;42288;52.182;21.156;2023-01-05T16:52:50;3.40;;;2.20;;
16979;SDS011;42288;52.182;21.156;2023-01-05T16:55:28;3.33;;;1.60;;
16979;SDS011;42288;52.182;21.156;2023-01-05T16:57:59;3.47;;;1.67;;
16979;SDS011;42288;52.182;21.156;2023-01-05T17:02:56;3.70;;;2.03;;
16979;SDS011;42288;52.182;21.156;2023-01-05T17:05:42;3.27;;;1.77;;
16979;SDS011;42288;52.182;21.156;2023-01-05T17:10:43;2.73;;;1.67;;
16979;SDS011;42288;52.182;21.156;2023-01-05T17:13:11;2.30;;;1.40;;
16979;SDS011;42288;52.182;21.156;2023-01-05T17:15:41;3.70;;;1.50;;
16979;SDS011;42288;52.182;21.156;2023-01-05T17:20:45;3.87;;;1.73;;
16979;SDS011;42288;52.182;21.156;2023-01-05T17:25:53;2.30;;;1.40;;
16979;SDS011;42288;52.182;21.156;2023-01-05T17:28:21;3.67;;;1.90;;
16979;SDS011;42288;52.182;21.156;2023-01-05T17:30:48;1.73;;;1.50;;
16979;SDS011;42288;52.182;21.156;2023-01-05T17:33:14;3.00;;;1.53;;